sensor_id;sensor_type;location;lat;lon;timestamp;P1;durP1;ratioP1;P2;durP2;ratioP2
38611;SDS011;24368;52.156;20.788;2023-09-30T00:00:39;7.00;;;6.40;;
38611;SDS011;24368;52.156;20.788;2023-09-30T00:06:01;7.00;;;6.30;;
38611;SDS011;24368;52.156;20.788;2023-09-30T00:11:02;8.00;;;7.10;;
38611;SDS011;24368;52.156;20.788;2023-09-30T00:21:29;9.80;;;6.70;;
38611;SDS011;24368;52.156;20.788;2023-09-30T00:26:31;6.60;;;6.00;;
38611;SDS011;24368;52.156;20.788;2023-09-30T00:31:33;9.20;;;7.80;;
38611;SDS011;24368;52.156;20.788;2023-09-30T00:36:35;10.70;;;7.70;;
38611;SDS011;24368;52.156;20.788;2023-09-30T00:41:38;9.40;;;6.80;;
38611;SDS011;24368;52.156;20.788;2023-09-30T00:46:41;7.20;;;6.40;;
38611;SDS011;24368;52.156;20.788;2023-09-30T00:51:47;8.80;;;7.70;;
38611;SDS011;24368;52.156;20.788;2023-09-30T00:56:50;9.50;;;7.20;;
38611;SDS011;24368;52.156;20.788;2023-09-30T01:02:03;9.00;;;6.60;;
38611;SDS011;24368;52.156;20.788;2023-09-30T01:07:53;11.40;;;8.10;;
38611;SDS011;24368;52.156;20.788;2023-09-30T01:12:55;11.50;;;8.70;;
38611;SDS011;24368;52.156;20.788;2023-09-30T01:17:57;9.40;;;8.60;;
38611;SDS011;24368;52.156;20.788;2023-09-30T01:22:59;7.30;;;6.60;;
38611;SDS011;24368;52.156;20.788;2023-09-30T01:28:06;8.20;;;7.30;;
38611;SDS011;24368;52.156;20.788;2023-09-30T01:33:09;7.20;;;6.60;;
38611;SDS011;24368;52.156;20.788;2023-09-30T01:38:11;9.30;;;6.80;;
38611;SDS011;24368;52.156;20.788;2023-09-30T01:43:14;7.10;;;6.50;;
38611;SDS011;24368;52.156;20.788;2023-09-30T01:48:16;7.20;;;6.10;;
38611;SDS011;24368;52.156;20.788;2023-09-30T01:53:18;7.40;;;6.50;;
38611;SDS011;24368;52.156;20.788;2023-09-30T01:58:20;7.40;;;6.70;;
38611;SDS011;24368;52.156;20.788;2023-09-30T02:03:22;7.20;;;6.50;;
38611;SDS011;24368;52.156;20.788;2023-09-30T02:08:24;7.80;;;6.90;;
38611;SDS011;24368;52.156;20.788;2023-09-30T02:13:25;7.80;;;6.80;;
38611;SDS011;24368;52.156;20.788;2023-09-30T02:18:28;9.10;;;7.30;;
38611;SDS011;24368;52.156;20.788;2023-09-30T02:23:33;8.80;;;7.30;;
38611;SDS011;24368;52.156;20.788;2023-09-30T02:28:35;7.00;;;6.30;;
38611;SDS011;24368;52.156;20.788;2023-09-30T02:33:38;7.80;;;6.90;;
38611;SDS011;24368;52.156;20.788;2023-09-30T02:38:40;9.40;;;6.80;;
38611;SDS011;24368;52.156;20.788;2023-09-30T02:43:42;8.10;;;7.20;;
38611;SDS011;24368;52.156;20.788;2023-09-30T02:48:44;8.20;;;6.60;;
38611;SDS011;24368;52.156;20.788;2023-09-30T02:53:46;9.50;;;7.40;;
38611;SDS011;24368;52.156;20.788;2023-09-30T02:58:52;7.70;;;6.90;;
38611;SDS011;24368;52.156;20.788;2023-09-30T03:03:54;7.70;;;6.90;;
38611;SDS011;24368;52.156;20.788;2023-09-30T03:08:56;9.00;;;7.70;;
38611;SDS011;24368;52.156;20.788;2023-09-30T03:13:58;8.30;;;7.50;;
38611;SDS011;24368;52.156;20.788;2023-09-30T03:19:00;7.40;;;6.70;;
38611;SDS011;24368;52.156;20.788;2023-09-30T03:24:04;9.40;;;7.50;;
38611;SDS011;24368;52.156;20.788;2023-09-30T03:29:09;6.90;;;6.20;;
38611;SDS011;24368;52.156;20.788;2023-09-30T03:34:11;8.20;;;7.30;;
38611;SDS011;24368;52.156;20.788;2023-09-30T03:39:13;8.00;;;7.30;;
38611;SDS011;24368;52.156;20.788;2023-09-30T03:44:16;8.40;;;7.20;;
38611;SDS011;24368;52.156;20.788;2023-09-30T03:49:19;10.60;;;7.60;;
38611;SDS011;24368;52.156;20.788;2023-09-30T03:54:21;8.60;;;7.80;;
38611;SDS011;24368;52.156;20.788;2023-09-30T03:59:23;8.70;;;7.90;;
38611;SDS011;24368;52.156;20.788;2023-09-30T04:04:27;7.90;;;7.00;;
38611;SDS011;24368;52.156;20.788;2023-09-30T04:09:29;8.30;;;7.50;;
38611;SDS011;24368;52.156;20.788;2023-09-30T04:14:32;8.90;;;7.80;;
38611;SDS011;24368;52.156;20.788;2023-09-30T04:19:46;10.50;;;7.20;;
38611;SDS011;24368;52.156;20.788;2023-09-30T04:24:55;8.30;;;7.40;;
38611;SDS011;24368;52.156;20.788;2023-09-30T04:29:57;7.90;;;7.20;;
38611;SDS011;24368;52.156;20.788;2023-09-30T04:34:59;8.10;;;7.00;;
38611;SDS011;24368;52.156;20.788;2023-09-30T04:40:07;8.20;;;7.40;;
38611;SDS011;24368;52.156;20.788;2023-09-30T04:45:37;10.60;;;7.30;;
38611;SDS011;24368;52.156;20.788;2023-09-30T04:51:08;8.40;;;7.60;;
38611;SDS011;24368;52.156;20.788;2023-09-30T04:56:10;8.10;;;6.80;;
38611;SDS011;24368;52.156;20.788;2023-09-30T05:01:32;7.10;;;6.50;;
38611;SDS011;24368;52.156;20.788;2023-09-30T05:06:41;8.50;;;7.50;;
38611;SDS011;24368;52.156;20.788;2023-09-30T05:11:43;7.80;;;7.00;;
38611;SDS011;24368;52.156;20.788;2023-09-30T05:16:45;8.40;;;7.00;;
38611;SDS011;24368;52.156;20.788;2023-09-30T05:21:47;7.60;;;6.90;;
38611;SDS011;24368;52.156;20.788;2023-09-30T05:26:50;7.50;;;6.10;;
38611;SDS011;24368;52.156;20.788;2023-09-30T05:31:53;7.80;;;7.10;;
38611;SDS011;24368;52.156;20.788;2023-09-30T05:37:09;9.60;;;6.60;;
38611;SDS011;24368;52.156;20.788;2023-09-30T05:42:10;7.40;;;6.70;;
38611;SDS011;24368;52.156;20.788;2023-09-30T05:47:14;6.60;;;6.00;;
38611;SDS011;24368;52.156;20.788;2023-09-30T05:52:18;6.90;;;6.30;;
38611;SDS011;24368;52.156;20.788;2023-09-30T05:57:20;7.00;;;5.80;;
38611;SDS011;24368;52.156;20.788;2023-09-30T06:02:24;6.70;;;6.00;;
38611;SDS011;24368;52.156;20.788;2023-09-30T06:07:26;7.20;;;5.70;;
38611;SDS011;24368;52.156;20.788;2023-09-30T06:12:28;8.00;;;7.20;;
38611;SDS011;24368;52.156;20.788;2023-09-30T06:17:31;9.00;;;7.50;;
38611;SDS011;24368;52.156;20.788;2023-09-30T06:22:39;7.50;;;6.70;;
38611;SDS011;24368;52.156;20.788;2023-09-30T06:27:41;8.20;;;7.50;;
38611;SDS011;24368;52.156;20.788;2023-09-30T06:32:47;8.90;;;8.00;;
38611;SDS011;24368;52.156;20.788;2023-09-30T06:37:49;8.40;;;7.40;;
38611;SDS011;24368;52.156;20.788;2023-09-30T06:42:51;9.50;;;8.50;;
38611;SDS011;24368;52.156;20.788;2023-09-30T06:47:53;8.20;;;7.40;;
38611;SDS011;24368;52.156;20.788;2023-09-30T06:52:56;9.90;;;9.00;;
38611;SDS011;24368;52.156;20.788;2023-09-30T06:57:58;9.80;;;8.40;;
38611;SDS011;24368;52.156;20.788;2023-09-30T07:03:00;10.50;;;9.50;;
38611;SDS011;24368;52.156;20.788;2023-09-30T07:08:03;10.50;;;9.30;;
38611;SDS011;24368;52.156;20.788;2023-09-30T07:13:05;10.60;;;9.60;;
38611;SDS011;24368;52.156;20.788;2023-09-30T07:18:08;9.90;;;9.10;;
38611;SDS011;24368;52.156;20.788;2023-09-30T07:23:10;11.70;;;9.70;;
38611;SDS011;24368;52.156;20.788;2023-09-30T07:28:12;12.00;;;10.60;;
38611;SDS011;24368;52.156;20.788;2023-09-30T07:33:14;11.50;;;10.00;;
38611;SDS011;24368;52.156;20.788;2023-09-30T07:38:16;12.70;;;11.40;;
38611;SDS011;24368;52.156;20.788;2023-09-30T07:43:18;12.20;;;11.00;;
38611;SDS011;24368;52.156;20.788;2023-09-30T07:48:21;12.60;;;10.40;;
38611;SDS011;24368;52.156;20.788;2023-09-30T07:53:23;11.60;;;10.60;;
38611;SDS011;24368;52.156;20.788;2023-09-30T07:58:25;12.70;;;11.10;;
38611;SDS011;24368;52.156;20.788;2023-09-30T08:03:27;12.00;;;10.80;;
38611;SDS011;24368;52.156;20.788;2023-09-30T08:08:29;12.70;;;11.40;;
38611;SDS011;24368;52.156;20.788;2023-09-30T08:13:32;12.50;;;11.20;;
38611;SDS011;24368;52.156;20.788;2023-09-30T08:18:34;13.20;;;11.90;;
38611;SDS011;24368;52.156;20.788;2023-09-30T08:23:36;15.60;;;11.60;;
38611;SDS011;24368;52.156;20.788;2023-09-30T08:28:38;14.20;;;12.90;;
38611;SDS011;24368;52.156;20.788;2023-09-30T08:33:39;12.50;;;11.30;;
38611;SDS011;24368;52.156;20.788;2023-09-30T08:38:44;13.40;;;11.70;;
38611;SDS011;24368;52.156;20.788;2023-09-30T08:43:46;12.90;;;11.60;;
38611;SDS011;24368;52.156;20.788;2023-09-30T08:48:48;12.40;;;11.20;;
38611;SDS011;24368;52.156;20.788;2023-09-30T08:53:51;14.50;;;13.00;;
38611;SDS011;24368;52.156;20.788;2023-09-30T08:58:55;13.20;;;11.90;;
38611;SDS011;24368;52.156;20.788;2023-09-30T09:03:59;11.70;;;10.50;;
38611;SDS011;24368;52.156;20.788;2023-09-30T09:09:15;13.20;;;11.90;;
38611;SDS011;24368;52.156;20.788;2023-09-30T09:14:41;13.90;;;12.50;;
38611;SDS011;24368;52.156;20.788;2023-09-30T09:20:00;13.10;;;11.90;;
38611;SDS011;24368;52.156;20.788;2023-09-30T09:25:02;14.70;;;13.20;;
38611;SDS011;24368;52.156;20.788;2023-09-30T09:30:21;13.50;;;12.20;;
38611;SDS011;24368;52.156;20.788;2023-09-30T09:35:28;17.70;;;15.90;;
38611;SDS011;24368;52.156;20.788;2023-09-30T09:40:32;16.10;;;14.60;;
38611;SDS011;24368;52.156;20.788;2023-09-30T09:45:36;17.10;;;15.60;;
38611;SDS011;24368;52.156;20.788;2023-09-30T09:50:39;16.60;;;15.00;;
38611;SDS011;24368;52.156;20.788;2023-09-30T09:55:41;13.00;;;11.70;;
38611;SDS011;24368;52.156;20.788;2023-09-30T10:00:44;13.80;;;11.40;;
38611;SDS011;24368;52.156;20.788;2023-09-30T10:05:46;8.50;;;7.70;;
38611;SDS011;24368;52.156;20.788;2023-09-30T10:10:50;9.50;;;8.10;;
38611;SDS011;24368;52.156;20.788;2023-09-30T10:15:52;8.00;;;4.90;;
38611;SDS011;24368;52.156;20.788;2023-09-30T10:20:56;9.90;;;7.10;;
38611;SDS011;24368;52.156;20.788;2023-09-30T10:31:18;10.60;;;8.60;;
38611;SDS011;24368;52.156;20.788;2023-09-30T10:36:26;5.50;;;2.90;;
38611;SDS011;24368;52.156;20.788;2023-09-30T10:46:48;1.80;;;0.90;;
38611;SDS011;24368;52.156;20.788;2023-09-30T10:51:52;3.00;;;0.90;;
38611;SDS011;24368;52.156;20.788;2023-09-30T10:56:55;1.50;;;1.10;;
38611;SDS011;24368;52.156;20.788;2023-09-30T11:07:02;4.10;;;1.50;;
38611;SDS011;24368;52.156;20.788;2023-09-30T11:12:05;3.30;;;1.50;;
38611;SDS011;24368;52.156;20.788;2023-09-30T11:17:17;4.30;;;2.10;;
38611;SDS011;24368;52.156;20.788;2023-09-30T11:22:23;4.30;;;2.20;;
38611;SDS011;24368;52.156;20.788;2023-09-30T11:27:25;4.30;;;2.30;;
38611;SDS011;24368;52.156;20.788;2023-09-30T11:32:28;7.70;;;2.70;;
38611;SDS011;24368;52.156;20.788;2023-09-30T11:37:44;4.10;;;2.50;;
38611;SDS011;24368;52.156;20.788;2023-09-30T11:49:40;8.20;;;4.60;;
38611;SDS011;24368;52.156;20.788;2023-09-30T11:54:45;6.60;;;2.90;;
38611;SDS011;24368;52.156;20.788;2023-09-30T11:59:48;8.50;;;3.40;;
38611;SDS011;24368;52.156;20.788;2023-09-30T12:04:53;8.90;;;3.60;;
38611;SDS011;24368;52.156;20.788;2023-09-30T12:09:57;6.80;;;2.70;;
38611;SDS011;24368;52.156;20.788;2023-09-30T12:15:01;8.00;;;3.40;;
38611;SDS011;24368;52.156;20.788;2023-09-30T12:20:04;8.80;;;3.30;;
38611;SDS011;24368;52.156;20.788;2023-09-30T12:25:13;5.60;;;2.60;;
38611;SDS011;24368;52.156;20.788;2023-09-30T12:30:15;6.90;;;2.80;;
38611;SDS011;24368;52.156;20.788;2023-09-30T12:35:18;10.50;;;3.90;;
38611;SDS011;24368;52.156;20.788;2023-09-30T12:40:30;5.80;;;3.10;;
38611;SDS011;24368;52.156;20.788;2023-09-30T12:45:32;5.70;;;3.40;;
38611;SDS011;24368;52.156;20.788;2023-09-30T12:50:34;8.20;;;4.50;;
38611;SDS011;24368;52.156;20.788;2023-09-30T12:55:36;5.60;;;3.10;;
38611;SDS011;24368;52.156;20.788;2023-09-30T13:00:41;6.00;;;2.80;;
38611;SDS011;24368;52.156;20.788;2023-09-30T13:05:45;4.50;;;2.50;;
38611;SDS011;24368;52.156;20.788;2023-09-30T13:10:47;4.70;;;2.10;;
38611;SDS011;24368;52.156;20.788;2023-09-30T13:15:51;7.30;;;2.50;;
38611;SDS011;24368;52.156;20.788;2023-09-30T13:20:54;5.60;;;2.50;;
38611;SDS011;24368;52.156;20.788;2023-09-30T13:25:56;3.50;;;1.70;;
38611;SDS011;24368;52.156;20.788;2023-09-30T13:30:59;6.20;;;2.30;;
38611;SDS011;24368;52.156;20.788;2023-09-30T13:36:01;5.90;;;2.10;;
38611;SDS011;24368;52.156;20.788;2023-09-30T13:41:03;3.60;;;1.80;;
38611;SDS011;24368;52.156;20.788;2023-09-30T13:46:05;3.20;;;1.80;;
38611;SDS011;24368;52.156;20.788;2023-09-30T13:51:08;5.10;;;3.40;;
38611;SDS011;24368;52.156;20.788;2023-09-30T13:56:12;4.90;;;2.60;;
38611;SDS011;24368;52.156;20.788;2023-09-30T14:01:14;5.80;;;2.40;;
38611;SDS011;24368;52.156;20.788;2023-09-30T14:06:16;5.50;;;2.10;;
38611;SDS011;24368;52.156;20.788;2023-09-30T14:11:18;4.80;;;2.70;;
38611;SDS011;24368;52.156;20.788;2023-09-30T14:16:20;6.30;;;2.60;;
38611;SDS011;24368;52.156;20.788;2023-09-30T14:21:22;7.60;;;3.30;;
38611;SDS011;24368;52.156;20.788;2023-09-30T14:26:24;4.90;;;3.10;;
38611;SDS011;24368;52.156;20.788;2023-09-30T14:31:26;5.10;;;3.00;;
38611;SDS011;24368;52.156;20.788;2023-09-30T14:36:28;12.90;;;8.60;;
38611;SDS011;24368;52.156;20.788;2023-09-30T14:41:29;5.80;;;3.00;;
38611;SDS011;24368;52.156;20.788;2023-09-30T14:46:32;5.50;;;2.50;;
38611;SDS011;24368;52.156;20.788;2023-09-30T14:51:35;5.50;;;2.50;;
38611;SDS011;24368;52.156;20.788;2023-09-30T14:56:37;5.80;;;2.60;;
38611;SDS011;24368;52.156;20.788;2023-09-30T15:01:39;6.30;;;2.60;;
38611;SDS011;24368;52.156;20.788;2023-09-30T15:06:41;5.90;;;2.80;;
38611;SDS011;24368;52.156;20.788;2023-09-30T15:11:43;4.80;;;2.50;;
38611;SDS011;24368;52.156;20.788;2023-09-30T15:16:46;4.70;;;2.80;;
38611;SDS011;24368;52.156;20.788;2023-09-30T15:21:47;6.60;;;2.90;;
38611;SDS011;24368;52.156;20.788;2023-09-30T15:26:50;4.90;;;3.20;;
38611;SDS011;24368;52.156;20.788;2023-09-30T15:36:15;6.60;;;3.70;;
38611;SDS011;24368;52.156;20.788;2023-09-30T15:41:22;6.20;;;2.70;;
38611;SDS011;24368;52.156;20.788;2023-09-30T15:46:26;5.10;;;2.90;;
38611;SDS011;24368;52.156;20.788;2023-09-30T15:51:28;4.90;;;2.10;;
38611;SDS011;24368;52.156;20.788;2023-09-30T15:56:30;4.80;;;2.60;;
38611;SDS011;24368;52.156;20.788;2023-09-30T16:01:31;5.60;;;2.70;;
38611;SDS011;24368;52.156;20.788;2023-09-30T16:06:34;4.30;;;2.50;;
38611;SDS011;24368;52.156;20.788;2023-09-30T16:11:37;6.70;;;3.30;;
38611;SDS011;24368;52.156;20.788;2023-09-30T16:16:39;7.50;;;3.00;;
38611;SDS011;24368;52.156;20.788;2023-09-30T16:21:40;5.50;;;2.70;;
38611;SDS011;24368;52.156;20.788;2023-09-30T16:26:42;6.50;;;3.20;;
38611;SDS011;24368;52.156;20.788;2023-09-30T16:31:45;8.70;;;3.50;;
38611;SDS011;24368;52.156;20.788;2023-09-30T16:36:47;6.50;;;3.40;;
38611;SDS011;24368;52.156;20.788;2023-09-30T16:41:48;13.10;;;3.50;;
38611;SDS011;24368;52.156;20.788;2023-09-30T16:46:50;5.70;;;3.00;;
38611;SDS011;24368;52.156;20.788;2023-09-30T16:51:52;6.30;;;3.40;;
38611;SDS011;24368;52.156;20.788;2023-09-30T16:56:54;5.40;;;3.60;;
38611;SDS011;24368;52.156;20.788;2023-09-30T17:02:02;6.70;;;3.80;;
38611;SDS011;24368;52.156;20.788;2023-09-30T17:07:05;6.30;;;3.80;;
38611;SDS011;24368;52.156;20.788;2023-09-30T17:12:08;9.50;;;4.00;;
38611;SDS011;24368;52.156;20.788;2023-09-30T17:17:10;7.10;;;3.50;;
38611;SDS011;24368;52.156;20.788;2023-09-30T17:22:15;5.10;;;3.40;;
38611;SDS011;24368;52.156;20.788;2023-09-30T17:27:25;7.10;;;3.90;;
38611;SDS011;24368;52.156;20.788;2023-09-30T17:32:26;5.60;;;3.00;;
38611;SDS011;24368;52.156;20.788;2023-09-30T17:37:28;9.00;;;4.50;;
38611;SDS011;24368;52.156;20.788;2023-09-30T17:42:31;5.30;;;3.50;;
38611;SDS011;24368;52.156;20.788;2023-09-30T17:47:38;7.60;;;3.80;;
38611;SDS011;24368;52.156;20.788;2023-09-30T17:52:40;6.80;;;4.20;;
38611;SDS011;24368;52.156;20.788;2023-09-30T17:57:42;9.00;;;3.50;;
38611;SDS011;24368;52.156;20.788;2023-09-30T18:02:55;8.00;;;4.50;;
38611;SDS011;24368;52.156;20.788;2023-09-30T18:08:13;11.00;;;4.10;;
38611;SDS011;24368;52.156;20.788;2023-09-30T18:13:15;8.70;;;4.50;;
38611;SDS011;24368;52.156;20.788;2023-09-30T18:18:17;7.60;;;4.10;;
38611;SDS011;24368;52.156;20.788;2023-09-30T18:23:19;10.10;;;4.20;;
38611;SDS011;24368;52.156;20.788;2023-09-30T18:28:21;9.90;;;4.90;;
38611;SDS011;24368;52.156;20.788;2023-09-30T18:33:23;8.30;;;4.20;;
38611;SDS011;24368;52.156;20.788;2023-09-30T18:38:26;7.30;;;4.00;;
38611;SDS011;24368;52.156;20.788;2023-09-30T18:43:27;6.60;;;3.90;;
38611;SDS011;24368;52.156;20.788;2023-09-30T18:48:31;8.40;;;4.80;;
38611;SDS011;24368;52.156;20.788;2023-09-30T18:53:36;9.90;;;5.00;;
38611;SDS011;24368;52.156;20.788;2023-09-30T18:58:40;8.80;;;4.90;;
38611;SDS011;24368;52.156;20.788;2023-09-30T19:03:41;9.70;;;4.70;;
38611;SDS011;24368;52.156;20.788;2023-09-30T19:08:43;7.20;;;4.50;;
38611;SDS011;24368;52.156;20.788;2023-09-30T19:13:46;9.90;;;5.30;;
38611;SDS011;24368;52.156;20.788;2023-09-30T19:18:48;10.90;;;5.80;;
38611;SDS011;24368;52.156;20.788;2023-09-30T19:23:49;8.50;;;4.80;;
38611;SDS011;24368;52.156;20.788;2023-09-30T19:28:52;6.60;;;3.10;;
38611;SDS011;24368;52.156;20.788;2023-09-30T19:33:55;9.90;;;7.90;;
38611;SDS011;24368;52.156;20.788;2023-09-30T19:38:57;6.70;;;3.70;;
38611;SDS011;24368;52.156;20.788;2023-09-30T19:44:19;8.00;;;3.40;;
38611;SDS011;24368;52.156;20.788;2023-09-30T19:49:43;9.60;;;3.80;;
38611;SDS011;24368;52.156;20.788;2023-09-30T19:54:46;8.90;;;3.80;;
38611;SDS011;24368;52.156;20.788;2023-09-30T19:59:47;8.50;;;3.60;;
38611;SDS011;24368;52.156;20.788;2023-09-30T20:04:49;7.70;;;4.30;;
38611;SDS011;24368;52.156;20.788;2023-09-30T20:09:51;15.30;;;4.60;;
38611;SDS011;24368;52.156;20.788;2023-09-30T20:14:54;5.80;;;4.30;;
38611;SDS011;24368;52.156;20.788;2023-09-30T20:19:56;10.00;;;5.90;;
38611;SDS011;24368;52.156;20.788;2023-09-30T20:24:58;7.40;;;4.70;;
38611;SDS011;24368;52.156;20.788;2023-09-30T20:30:03;11.20;;;5.70;;
38611;SDS011;24368;52.156;20.788;2023-09-30T20:35:05;9.30;;;4.80;;
38611;SDS011;24368;52.156;20.788;2023-09-30T20:40:07;9.30;;;4.60;;
38611;SDS011;24368;52.156;20.788;2023-09-30T20:45:11;6.30;;;4.40;;
38611;SDS011;24368;52.156;20.788;2023-09-30T20:50:15;11.60;;;6.10;;
38611;SDS011;24368;52.156;20.788;2023-09-30T20:55:17;8.80;;;4.60;;
38611;SDS011;24368;52.156;20.788;2023-09-30T21:00:39;7.50;;;4.30;;
38611;SDS011;24368;52.156;20.788;2023-09-30T21:05:49;9.20;;;4.60;;
38611;SDS011;24368;52.156;20.788;2023-09-30T21:10:54;7.20;;;4.20;;
38611;SDS011;24368;52.156;20.788;2023-09-30T21:15:56;9.50;;;4.70;;
38611;SDS011;24368;52.156;20.788;2023-09-30T21:20:58;8.40;;;5.10;;
38611;SDS011;24368;52.156;20.788;2023-09-30T21:26:00;7.30;;;4.20;;
38611;SDS011;24368;52.156;20.788;2023-09-30T21:31:01;6.70;;;4.80;;
38611;SDS011;24368;52.156;20.788;2023-09-30T21:36:03;7.10;;;4.50;;
38611;SDS011;24368;52.156;20.788;2023-09-30T21:41:10;11.50;;;4.40;;
38611;SDS011;24368;52.156;20.788;2023-09-30T21:46:20;10.10;;;4.20;;
38611;SDS011;24368;52.156;20.788;2023-09-30T21:51:25;9.20;;;5.50;;
38611;SDS011;24368;52.156;20.788;2023-09-30T21:56:27;7.90;;;4.60;;
38611;SDS011;24368;52.156;20.788;2023-09-30T22:01:29;8.50;;;4.40;;
38611;SDS011;24368;52.156;20.788;2023-09-30T22:06:33;12.00;;;4.70;;
38611;SDS011;24368;52.156;20.788;2023-09-30T22:11:35;9.70;;;4.20;;
38611;SDS011;24368;52.156;20.788;2023-09-30T22:16:37;6.90;;;4.70;;
38611;SDS011;24368;52.156;20.788;2023-09-30T22:21:39;8.10;;;4.30;;
38611;SDS011;24368;52.156;20.788;2023-09-30T22:26:41;9.40;;;4.40;;
38611;SDS011;24368;52.156;20.788;2023-09-30T22:31:43;9.20;;;4.20;;
38611;SDS011;24368;52.156;20.788;2023-09-30T22:36:46;11.70;;;4.40;;
38611;SDS011;24368;52.156;20.788;2023-09-30T22:41:48;11.10;;;4.60;;
38611;SDS011;24368;52.156;20.788;2023-09-30T22:46:50;8.20;;;4.10;;
38611;SDS011;24368;52.156;20.788;2023-09-30T22:51:52;10.60;;;5.60;;
38611;SDS011;24368;52.156;20.788;2023-09-30T22:56:54;9.00;;;5.20;;
38611;SDS011;24368;52.156;20.788;2023-09-30T23:01:57;7.10;;;4.10;;
38611;SDS011;24368;52.156;20.788;2023-09-30T23:07:00;8.70;;;4.30;;
38611;SDS011;24368;52.156;20.788;2023-09-30T23:12:02;9.10;;;4.10;;
38611;SDS011;24368;52.156;20.788;2023-09-30T23:17:04;10.00;;;4.00;;
38611;SDS011;24368;52.156;20.788;2023-09-30T23:22:06;9.70;;;4.10;;
38611;SDS011;24368;52.156;20.788;2023-09-30T23:27:19;12.70;;;4.40;;
38611;SDS011;24368;52.156;20.788;2023-09-30T23:32:21;8.70;;;4.00;;
38611;SDS011;24368;52.156;20.788;2023-09-30T23:37:27;8.60;;;4.30;;
38611;SDS011;24368;52.156;20.788;2023-09-30T23:42:29;9.00;;;4.30;;
38611;SDS011;24368;52.156;20.788;2023-09-30T23:47:31;7.10;;;4.50;;
38611;SDS011;24368;52.156;20.788;2023-09-30T23:52:37;8.90;;;4.10;;
38611;SDS011;24368;52.156;20.788;2023-09-30T23:57:41;8.90;;;4.90;;
